sensor_id;sensor_type;location;lat;lon;timestamp;pressure;altitude;pressure_sealevel;temperature;humidity
53960;BME280;39866;48.638;-2.020;2022-09-03T00:05:37;100754.63;;;23.66;63.38
53960;BME280;39866;48.638;-2.020;2022-09-03T00:08:37;100745.97;;;23.72;62.09
53960;BME280;39866;48.638;-2.020;2022-09-03T00:11:04;100753.84;;;23.64;61.80
53960;BME280;39866;48.638;-2.020;2022-09-03T00:13:40;100728.59;;;23.41;62.24
53960;BME280;39866;48.638;-2.020;2022-09-03T00:16:08;100749.41;;;23.75;62.31
53960;BME280;39866;48.638;-2.020;2022-09-03T00:18:41;100745.44;;;23.79;61.44
53960;BME280;39866;48.638;-2.020;2022-09-03T00:21:16;100749.75;;;23.81;61.78
53960;BME280;39866;48.638;-2.020;2022-09-03T00:23:43;100749.88;;;23.80;61.37
53960;BME280;39866;48.638;-2.020;2022-09-03T00:28:43;100741.88;;;23.99;61.10
53960;BME280;39866;48.638;-2.020;2022-09-03T00:31:15;100745.97;;;24.05;60.96
53960;BME280;39866;48.638;-2.020;2022-09-03T00:33:43;100747.75;;;23.83;61.48
53960;BME280;39866;48.638;-2.020;2022-09-03T00:38:37;100746.66;;;23.86;61.33
53960;BME280;39866;48.638;-2.020;2022-09-03T00:51:38;100729.13;;;23.02;70.51
53960;BME280;39866;48.638;-2.020;2022-09-03T00:54:24;100733.69;;;22.79;70.14
53960;BME280;39866;48.638;-2.020;2022-09-03T01:00:13;100720.03;;;22.22;72.09
53960;BME280;39866;48.638;-2.020;2022-09-03T01:11:13;100716.81;;;22.17;70.00
53960;BME280;39866;48.638;-2.020;2022-09-03T01:16:51;100711.75;;;22.13;69.94
53960;BME280;39866;48.638;-2.020;2022-09-03T01:22:56;100719.69;;;22.38;69.76
53960;BME280;39866;48.638;-2.020;2022-09-03T01:25:49;100713.13;;;22.41;69.04
53960;BME280;39866;48.638;-2.020;2022-09-03T01:31:07;100720.34;;;22.64;68.56
53960;BME280;39866;48.638;-2.020;2022-09-03T01:36:36;100712.44;;;22.50;67.32
53960;BME280;39866;48.638;-2.020;2022-09-03T01:39:05;100712.53;;;22.48;67.33
53960;BME280;39866;48.638;-2.020;2022-09-03T01:45:14;100704.78;;;22.55;67.77
53960;BME280;39866;48.638;-2.020;2022-09-03T01:50:55;100711.09;;;22.67;67.46
53960;BME280;39866;48.638;-2.020;2022-09-03T02:02:09;100711.47;;;22.62;66.81
53960;BME280;39866;48.638;-2.020;2022-09-03T02:04:37;100709.88;;;22.71;66.48
53960;BME280;39866;48.638;-2.020;2022-09-03T02:07:03;100706.03;;;22.51;65.67
53960;BME280;39866;48.638;-2.020;2022-09-03T02:09:30;100712.44;;;22.61;66.20
53960;BME280;39866;48.638;-2.020;2022-09-03T02:12:01;100697.13;;;22.60;66.47
53960;BME280;39866;48.638;-2.020;2022-09-03T02:14:28;100697.13;;;22.60;66.94
53960;BME280;39866;48.638;-2.020;2022-09-03T02:16:56;100706.75;;;22.53;66.75
53960;BME280;39866;48.638;-2.020;2022-09-03T02:19:23;100690.34;;;22.43;67.18
53960;BME280;39866;48.638;-2.020;2022-09-03T02:21:52;100703.06;;;22.54;67.14
53960;BME280;39866;48.638;-2.020;2022-09-03T02:24:19;100710.22;;;22.55;66.73
53960;BME280;39866;48.638;-2.020;2022-09-03T02:26:45;100703.06;;;22.54;66.42
53960;BME280;39866;48.638;-2.020;2022-09-03T02:29:12;100713.41;;;22.49;66.89
53960;BME280;39866;48.638;-2.020;2022-09-03T02:31:38;100702.06;;;22.55;67.43
53960;BME280;39866;48.638;-2.020;2022-09-03T02:34:03;100713.94;;;22.54;66.87
53960;BME280;39866;48.638;-2.020;2022-09-03T02:36:37;100705.03;;;22.52;66.99
53960;BME280;39866;48.638;-2.020;2022-09-03T02:39:04;100700.22;;;22.56;66.62
53960;BME280;39866;48.638;-2.020;2022-09-03T02:41:30;100707.25;;;22.69;66.41
53960;BME280;39866;48.638;-2.020;2022-09-03T02:44:19;100712.94;;;22.66;66.89
53960;BME280;39866;48.638;-2.020;2022-09-03T02:46:53;100704.41;;;22.48;67.96
53960;BME280;39866;48.638;-2.020;2022-09-03T02:49:21;100720.16;;;22.32;69.34
53960;BME280;39866;48.638;-2.020;2022-09-03T02:51:47;100719.31;;;22.08;71.12
53960;BME280;39866;48.638;-2.020;2022-09-03T02:54:12;100719.31;;;21.96;71.83
53960;BME280;39866;48.638;-2.020;2022-09-03T02:56:38;100722.06;;;21.84;72.31
53960;BME280;39866;48.638;-2.020;2022-09-03T02:59:05;100720.97;;;21.86;72.89
53960;BME280;39866;48.638;-2.020;2022-09-03T03:01:31;100723.47;;;21.89;73.40
53960;BME280;39866;48.638;-2.020;2022-09-03T03:03:56;100720.38;;;21.94;74.06
53960;BME280;39866;48.638;-2.020;2022-09-03T03:06:22;100717.91;;;22.15;74.77
53960;BME280;39866;48.638;-2.020;2022-09-03T03:08:48;100701.03;;;22.22;74.78
53960;BME280;39866;48.638;-2.020;2022-09-03T03:11:14;100713.88;;;22.32;74.92
53960;BME280;39866;48.638;-2.020;2022-09-03T03:13:43;100711.06;;;22.33;74.83
53960;BME280;39866;48.638;-2.020;2022-09-03T03:16:08;100712.16;;;22.31;74.62
53960;BME280;39866;48.638;-2.020;2022-09-03T03:18:34;100712.03;;;22.21;73.62
53960;BME280;39866;48.638;-2.020;2022-09-03T03:21:09;100714.59;;;21.98;73.43
53960;BME280;39866;48.638;-2.020;2022-09-03T03:23:36;100692.03;;;21.87;74.18
53960;BME280;39866;48.638;-2.020;2022-09-03T03:26:04;100708.56;;;21.95;74.84
53960;BME280;39866;48.638;-2.020;2022-09-03T03:28:33;100714.16;;;22.05;75.30
53960;BME280;39866;48.638;-2.020;2022-09-03T03:33:34;100707.84;;;22.04;74.99
53960;BME280;39866;48.638;-2.020;2022-09-03T03:38:34;100705.41;;;22.12;74.74
53960;BME280;39866;48.638;-2.020;2022-09-03T03:41:21;100674.59;;;22.02;74.82
53960;BME280;39866;48.638;-2.020;2022-09-03T03:43:52;100704.84;;;22.20;74.37
53960;BME280;39866;48.638;-2.020;2022-09-03T03:46:18;100702.03;;;22.21;74.21
53960;BME280;39866;48.638;-2.020;2022-09-03T03:48:49;100708.41;;;22.20;73.96
53960;BME280;39866;48.638;-2.020;2022-09-03T03:51:14;100701.16;;;22.21;74.21
53960;BME280;39866;48.638;-2.020;2022-09-03T03:53:40;100709.91;;;22.24;73.75
53960;BME280;39866;48.638;-2.020;2022-09-03T03:56:08;100711.88;;;22.22;73.49
53960;BME280;39866;48.638;-2.020;2022-09-03T03:58:37;100702.31;;;22.06;73.11
53960;BME280;39866;48.638;-2.020;2022-09-03T04:01:20;100703.91;;;21.97;73.03
53960;BME280;39866;48.638;-2.020;2022-09-03T04:03:46;100702.69;;;22.01;72.82
53960;BME280;39866;48.638;-2.020;2022-09-03T04:06:15;100702.63;;;21.90;72.34
53960;BME280;39866;48.638;-2.020;2022-09-03T04:08:42;100691.78;;;21.90;72.95
53960;BME280;39866;48.638;-2.020;2022-09-03T04:11:10;100696.56;;;21.86;72.55
53960;BME280;39866;48.638;-2.020;2022-09-03T04:13:38;100696.34;;;21.89;72.59
53960;BME280;39866;48.638;-2.020;2022-09-03T04:18:34;100701.63;;;21.91;72.11
53960;BME280;39866;48.638;-2.020;2022-09-03T04:21:27;100692.66;;;21.90;72.02
53960;BME280;39866;48.638;-2.020;2022-09-03T04:23:53;100699.16;;;21.88;72.00
53960;BME280;39866;48.638;-2.020;2022-09-03T04:26:27;100689.94;;;21.90;72.12
53960;BME280;39866;48.638;-2.020;2022-09-03T04:28:56;100707.34;;;21.99;72.34
53960;BME280;39866;48.638;-2.020;2022-09-03T04:31:22;100704.03;;;22.07;72.58
53960;BME280;39866;48.638;-2.020;2022-09-03T04:33:48;100696.75;;;22.07;72.20
53960;BME280;39866;48.638;-2.020;2022-09-03T04:36:15;100692.34;;;22.06;71.79
53960;BME280;39866;48.638;-2.020;2022-09-03T04:38:43;100699.91;;;22.14;71.83
53960;BME280;39866;48.638;-2.020;2022-09-03T04:41:12;100695.34;;;22.14;71.67
53960;BME280;39866;48.638;-2.020;2022-09-03T04:43:39;100699.38;;;22.09;71.30
53960;BME280;39866;48.638;-2.020;2022-09-03T04:46:06;100694.56;;;22.12;71.25
53960;BME280;39866;48.638;-2.020;2022-09-03T04:48:34;100686.25;;;21.91;70.55
53960;BME280;39866;48.638;-2.020;2022-09-03T04:51:11;100697.53;;;22.09;71.10
53960;BME280;39866;48.638;-2.020;2022-09-03T04:53:42;100695.53;;;22.11;70.96
53960;BME280;39866;48.638;-2.020;2022-09-03T04:56:19;100698.13;;;22.01;70.74
53960;BME280;39866;48.638;-2.020;2022-09-03T04:58:46;100694.19;;;22.06;71.06
53960;BME280;39866;48.638;-2.020;2022-09-03T05:01:17;100702.03;;;21.97;70.51
53960;BME280;39866;48.638;-2.020;2022-09-03T05:03:43;100704.59;;;21.88;70.81
53960;BME280;39866;48.638;-2.020;2022-09-03T05:06:09;100709.00;;;21.77;70.76
53960;BME280;39866;48.638;-2.020;2022-09-03T05:08:35;100705.06;;;21.82;70.77
53960;BME280;39866;48.638;-2.020;2022-09-03T05:11:01;100682.75;;;21.54;70.60
53960;BME280;39866;48.638;-2.020;2022-09-03T05:13:27;100704.06;;;21.83;70.91
53960;BME280;39866;48.638;-2.020;2022-09-03T05:15:57;100703.69;;;21.76;70.69
53960;BME280;39866;48.638;-2.020;2022-09-03T05:18:23;100706.34;;;21.65;70.50
53960;BME280;39866;48.638;-2.020;2022-09-03T05:20:59;100694.16;;;21.70;70.73
53960;BME280;39866;48.638;-2.020;2022-09-03T05:23:26;100709.00;;;21.54;70.20
53960;BME280;39866;48.638;-2.020;2022-09-03T05:26:03;100707.94;;;21.67;70.30
53960;BME280;39866;48.638;-2.020;2022-09-03T05:28:29;100694.41;;;21.67;69.87
53960;BME280;39866;48.638;-2.020;2022-09-03T05:31:17;100703.00;;;21.61;69.71
53960;BME280;39866;48.638;-2.020;2022-09-03T05:33:44;100710.38;;;21.59;70.51
53960;BME280;39866;48.638;-2.020;2022-09-03T05:36:13;100712.13;;;21.60;70.41
53960;BME280;39866;48.638;-2.020;2022-09-03T05:38:40;100713.69;;;21.51;69.43
53960;BME280;39866;48.638;-2.020;2022-09-03T05:41:08;100714.28;;;21.55;69.61
53960;BME280;39866;48.638;-2.020;2022-09-03T05:43:34;100727.59;;;21.34;69.68
53960;BME280;39866;48.638;-2.020;2022-09-03T05:46:05;100720.88;;;21.40;69.58
53960;BME280;39866;48.638;-2.020;2022-09-03T05:48:33;100730.66;;;21.54;69.28
53960;BME280;39866;48.638;-2.020;2022-09-03T05:51:13;100724.22;;;21.43;69.04
53960;BME280;39866;48.638;-2.020;2022-09-03T05:53:42;100734.34;;;21.52;69.64
53960;BME280;39866;48.638;-2.020;2022-09-03T05:56:13;100733.44;;;21.41;69.47
53960;BME280;39866;48.638;-2.020;2022-09-03T05:58:42;100720.31;;;21.35;69.56
53960;BME280;39866;48.638;-2.020;2022-09-03T06:01:19;100728.13;;;21.39;69.25
53960;BME280;39866;48.638;-2.020;2022-09-03T06:03:47;100724.53;;;21.39;68.86
53960;BME280;39866;48.638;-2.020;2022-09-03T06:06:13;100732.72;;;21.50;68.74
53960;BME280;39866;48.638;-2.020;2022-09-03T06:08:40;100715.44;;;21.40;68.17
53960;BME280;39866;48.638;-2.020;2022-09-03T06:11:07;100736.72;;;21.57;68.17
53960;BME280;39866;48.638;-2.020;2022-09-03T06:13:33;100737.22;;;21.62;68.22
53960;BME280;39866;48.638;-2.020;2022-09-03T06:16:00;100745.72;;;21.58;68.19
53960;BME280;39866;48.638;-2.020;2022-09-03T06:18:26;100718.91;;;21.42;67.84
53960;BME280;39866;48.638;-2.020;2022-09-03T06:20:53;100737.34;;;21.61;67.05
53960;BME280;39866;48.638;-2.020;2022-09-03T06:23:19;100738.50;;;21.69;67.29
53960;BME280;39866;48.638;-2.020;2022-09-03T06:25:44;100731.03;;;21.73;67.00
53960;BME280;39866;48.638;-2.020;2022-09-03T06:28:10;100727.09;;;21.77;66.87
53960;BME280;39866;48.638;-2.020;2022-09-03T06:30:35;100735.16;;;21.90;67.25
53960;BME280;39866;48.638;-2.020;2022-09-03T06:33:01;100726.31;;;21.99;66.98
53960;BME280;39866;48.638;-2.020;2022-09-03T06:35:26;100728.56;;;22.05;66.53
53960;BME280;39866;48.638;-2.020;2022-09-03T06:37:52;100709.19;;;21.98;66.37
53960;BME280;39866;48.638;-2.020;2022-09-03T06:40:18;100728.38;;;22.19;66.81
53960;BME280;39866;48.638;-2.020;2022-09-03T06:42:55;100732.34;;;22.27;66.93
53960;BME280;39866;48.638;-2.020;2022-09-03T06:45:25;100730.63;;;22.25;66.46
53960;BME280;39866;48.638;-2.020;2022-09-03T06:47:52;100732.00;;;22.31;66.35
53960;BME280;39866;48.638;-2.020;2022-09-03T06:50:18;100737.69;;;22.39;66.72
53960;BME280;39866;48.638;-2.020;2022-09-03T06:52:43;100743.97;;;22.40;65.76
53960;BME280;39866;48.638;-2.020;2022-09-03T06:55:08;100742.16;;;22.52;66.15
53960;BME280;39866;48.638;-2.020;2022-09-03T06:57:34;100733.66;;;22.56;66.30
53960;BME280;39866;48.638;-2.020;2022-09-03T06:59:59;100735.00;;;22.50;66.22
53960;BME280;39866;48.638;-2.020;2022-09-03T07:02:26;100751.78;;;22.56;66.04
53960;BME280;39866;48.638;-2.020;2022-09-03T07:04:51;100743.59;;;22.44;64.92
53960;BME280;39866;48.638;-2.020;2022-09-03T07:07:17;100745.47;;;22.44;65.09
53960;BME280;39866;48.638;-2.020;2022-09-03T07:09:42;100747.56;;;22.52;65.60
53960;BME280;39866;48.638;-2.020;2022-09-03T07:12:08;100743.25;;;22.49;65.43
53960;BME280;39866;48.638;-2.020;2022-09-03T07:14:35;100739.44;;;22.52;65.31
53960;BME280;39866;48.638;-2.020;2022-09-03T07:17:00;100737.34;;;22.55;65.29
53960;BME280;39866;48.638;-2.020;2022-09-03T07:19:25;100756.38;;;22.66;65.50
53960;BME280;39866;48.638;-2.020;2022-09-03T07:21:51;100749.72;;;22.70;65.66
53960;BME280;39866;48.638;-2.020;2022-09-03T07:24:18;100742.44;;;22.71;65.26
53960;BME280;39866;48.638;-2.020;2022-09-03T07:26:46;100747.97;;;22.69;64.73
53960;BME280;39866;48.638;-2.020;2022-09-03T07:29:13;100753.53;;;22.68;64.64
53960;BME280;39866;48.638;-2.020;2022-09-03T07:31:41;100750.94;;;22.66;64.92
53960;BME280;39866;48.638;-2.020;2022-09-03T07:34:09;100745.75;;;22.74;64.94
53960;BME280;39866;48.638;-2.020;2022-09-03T07:36:45;100751.19;;;22.74;64.52
53960;BME280;39866;48.638;-2.020;2022-09-03T07:39:13;100747.97;;;22.81;64.97
53960;BME280;39866;48.638;-2.020;2022-09-03T07:41:40;100749.69;;;22.82;65.04
53960;BME280;39866;48.638;-2.020;2022-09-03T07:44:08;100743.78;;;22.77;64.34
53960;BME280;39866;48.638;-2.020;2022-09-03T07:46:36;100749.19;;;22.65;63.90
53960;BME280;39866;48.638;-2.020;2022-09-03T07:49:02;100746.59;;;22.64;64.02
53960;BME280;39866;48.638;-2.020;2022-09-03T07:51:30;100741.19;;;22.64;63.90
53960;BME280;39866;48.638;-2.020;2022-09-03T07:53:58;100749.91;;;22.56;63.63
53960;BME280;39866;48.638;-2.020;2022-09-03T07:56:25;100753.59;;;22.44;63.62
53960;BME280;39866;48.638;-2.020;2022-09-03T07:58:51;100757.34;;;22.54;63.39
53960;BME280;39866;48.638;-2.020;2022-09-03T08:01:19;100757.81;;;22.48;63.29
53960;BME280;39866;48.638;-2.020;2022-09-03T08:03:47;100755.69;;;22.40;63.87
53960;BME280;39866;48.638;-2.020;2022-09-03T08:06:14;100760.53;;;22.59;63.90
53960;BME280;39866;48.638;-2.020;2022-09-03T08:08:39;100771.63;;;22.56;63.89
53960;BME280;39866;48.638;-2.020;2022-09-03T08:11:08;100768.91;;;22.56;64.20
53960;BME280;39866;48.638;-2.020;2022-09-03T08:13:36;100766.94;;;22.47;63.73
53960;BME280;39866;48.638;-2.020;2022-09-03T08:16:01;100769.03;;;22.55;63.98
53960;BME280;39866;48.638;-2.020;2022-09-03T08:18:27;100774.59;;;22.64;63.74
53960;BME280;39866;48.638;-2.020;2022-09-03T08:20:59;100769.19;;;22.75;63.56
53960;BME280;39866;48.638;-2.020;2022-09-03T08:23:25;100767.72;;;22.71;63.37
53960;BME280;39866;48.638;-2.020;2022-09-03T08:26:00;100781.31;;;22.83;63.49
53960;BME280;39866;48.638;-2.020;2022-09-03T08:28:26;100785.97;;;22.81;62.92
53960;BME280;39866;48.638;-2.020;2022-09-03T08:30:52;100780.72;;;22.90;63.00
53960;BME280;39866;48.638;-2.020;2022-09-03T08:33:17;100782.03;;;22.85;62.55
53960;BME280;39866;48.638;-2.020;2022-09-03T08:36:20;100779.09;;;22.88;62.54
53960;BME280;39866;48.638;-2.020;2022-09-03T08:38:50;100795.66;;;22.96;61.95
53960;BME280;39866;48.638;-2.020;2022-09-03T08:49:11;100802.94;;;22.95;62.04
53960;BME280;39866;48.638;-2.020;2022-09-03T08:51:39;100799.72;;;23.02;61.03
53960;BME280;39866;48.638;-2.020;2022-09-03T08:54:08;100806.78;;;23.04;61.49
53960;BME280;39866;48.638;-2.020;2022-09-03T08:56:37;100810.72;;;23.00;61.31
53960;BME280;39866;48.638;-2.020;2022-09-03T08:59:03;100816.00;;;23.02;61.37
53960;BME280;39866;48.638;-2.020;2022-09-03T09:04:38;100817.25;;;23.20;60.92
53960;BME280;39866;48.638;-2.020;2022-09-03T09:07:16;100821.94;;;23.18;59.37
53960;BME280;39866;48.638;-2.020;2022-09-03T09:10:15;100823.31;;;23.23;59.59
53960;BME280;39866;48.638;-2.020;2022-09-03T09:12:55;100821.34;;;23.26;59.29
53960;BME280;39866;48.638;-2.020;2022-09-03T09:15:41;100823.06;;;23.27;59.53
53960;BME280;39866;48.638;-2.020;2022-09-03T09:21:17;100832.69;;;23.19;59.97
53960;BME280;39866;48.638;-2.020;2022-09-03T09:23:46;100838.63;;;23.24;59.26
53960;BME280;39866;48.638;-2.020;2022-09-03T09:26:15;100845.91;;;23.24;59.64
53960;BME280;39866;48.638;-2.020;2022-09-03T09:28:44;100838.59;;;23.13;60.08
53960;BME280;39866;48.638;-2.020;2022-09-03T09:31:13;100845.53;;;23.17;59.98
53960;BME280;39866;48.638;-2.020;2022-09-03T09:33:43;100845.31;;;23.32;59.72
53960;BME280;39866;48.638;-2.020;2022-09-03T09:36:11;100851.72;;;23.19;59.38
53960;BME280;39866;48.638;-2.020;2022-09-03T09:38:40;100854.69;;;23.28;58.79
53960;BME280;39866;48.638;-2.020;2022-09-03T09:41:19;100848.50;;;23.37;59.18
53960;BME280;39866;48.638;-2.020;2022-09-03T09:43:45;100857.50;;;23.26;58.93
53960;BME280;39866;48.638;-2.020;2022-09-03T09:46:13;100865.28;;;23.31;58.58
53960;BME280;39866;48.638;-2.020;2022-09-03T09:48:49;100860.72;;;23.42;59.11
53960;BME280;39866;48.638;-2.020;2022-09-03T09:51:24;100857.63;;;23.47;59.05
53960;BME280;39866;48.638;-2.020;2022-09-03T09:56:28;100866.75;;;23.35;58.70
53960;BME280;39866;48.638;-2.020;2022-09-03T09:59:06;100867.03;;;23.32;59.13
53960;BME280;39866;48.638;-2.020;2022-09-03T10:01:33;100865.28;;;23.31;58.20
53960;BME280;39866;48.638;-2.020;2022-09-03T10:04:07;100862.22;;;23.24;58.26
53960;BME280;39866;48.638;-2.020;2022-09-03T10:06:34;100865.28;;;23.19;58.41
53960;BME280;39866;48.638;-2.020;2022-09-03T10:09:22;100870.81;;;23.18;58.70
53960;BME280;39866;48.638;-2.020;2022-09-03T10:11:49;100859.50;;;23.24;58.86
53960;BME280;39866;48.638;-2.020;2022-09-03T10:14:29;100856.03;;;23.33;58.67
53960;BME280;39866;48.638;-2.020;2022-09-03T10:20:00;100848.25;;;23.40;58.55
53960;BME280;39866;48.638;-2.020;2022-09-03T10:23:02;100860.97;;;23.62;58.71
53960;BME280;39866;48.638;-2.020;2022-09-03T10:28:26;100861.59;;;23.65;57.73
53960;BME280;39866;48.638;-2.020;2022-09-03T10:33:57;100862.16;;;23.91;55.13
53960;BME280;39866;48.638;-2.020;2022-09-03T10:36:35;100847.69;;;24.02;55.86
53960;BME280;39866;48.638;-2.020;2022-09-03T10:39:12;100853.34;;;24.10;56.12
53960;BME280;39866;48.638;-2.020;2022-09-03T10:41:51;100853.34;;;24.10;55.93
53960;BME280;39866;48.638;-2.020;2022-09-03T10:47:31;100857.03;;;23.77;51.81
53960;BME280;39866;48.638;-2.020;2022-09-03T10:50:13;100857.00;;;23.88;51.47
53960;BME280;39866;48.638;-2.020;2022-09-03T10:56:16;100851.91;;;23.95;49.25
53960;BME280;39866;48.638;-2.020;2022-09-03T10:59:06;100843.50;;;23.98;47.63
53960;BME280;39866;48.638;-2.020;2022-09-03T11:04:30;100849.25;;;24.16;49.39
53960;BME280;39866;48.638;-2.020;2022-09-03T11:07:05;100854.91;;;24.24;50.24
53960;BME280;39866;48.638;-2.020;2022-09-03T11:09:51;100856.50;;;24.27;49.40
53960;BME280;39866;48.638;-2.020;2022-09-03T11:12:35;100855.25;;;24.31;50.18
53960;BME280;39866;48.638;-2.020;2022-09-03T11:17:45;100855.75;;;24.25;49.96
53960;BME280;39866;48.638;-2.020;2022-09-03T11:20:18;100850.53;;;24.33;49.57
53960;BME280;39866;48.638;-2.020;2022-09-03T11:22:45;100856.59;;;24.36;49.01
53960;BME280;39866;48.638;-2.020;2022-09-03T11:25:14;100848.56;;;24.35;49.75
53960;BME280;39866;48.638;-2.020;2022-09-03T11:30:12;100846.50;;;24.38;49.04
53960;BME280;39866;48.638;-2.020;2022-09-03T11:32:52;100848.81;;;24.43;50.35
53960;BME280;39866;48.638;-2.020;2022-09-03T11:40:32;100827.50;;;24.48;50.49
53960;BME280;39866;48.638;-2.020;2022-09-03T11:43:06;100838.34;;;24.59;49.85
53960;BME280;39866;48.638;-2.020;2022-09-03T11:47:57;100840.41;;;24.35;49.33
53960;BME280;39866;48.638;-2.020;2022-09-03T11:50:28;100840.66;;;24.43;48.67
53960;BME280;39866;48.638;-2.020;2022-09-03T11:53:10;100841.06;;;24.59;49.34
53960;BME280;39866;48.638;-2.020;2022-09-03T11:55:55;100836.72;;;24.57;50.10
53960;BME280;39866;48.638;-2.020;2022-09-03T11:58:34;100831.91;;;24.60;48.92
53960;BME280;39866;48.638;-2.020;2022-09-03T12:01:12;100844.59;;;24.71;48.40
53960;BME280;39866;48.638;-2.020;2022-09-03T12:19:24;100835.19;;;25.06;47.63
53960;BME280;39866;48.638;-2.020;2022-09-03T12:21:51;100838.41;;;25.11;47.36
53960;BME280;39866;48.638;-2.020;2022-09-03T12:24:18;100832.97;;;25.11;47.46
53960;BME280;39866;48.638;-2.020;2022-09-03T12:26:44;100832.00;;;25.01;47.43
53960;BME280;39866;48.638;-2.020;2022-09-03T12:29:26;100836.78;;;25.08;46.71
53960;BME280;39866;48.638;-2.020;2022-09-03T12:31:51;100833.59;;;25.24;46.78
53960;BME280;39866;48.638;-2.020;2022-09-03T12:34:19;100840.78;;;25.25;47.49
53960;BME280;39866;48.638;-2.020;2022-09-03T12:36:47;100834.28;;;25.16;46.87
53960;BME280;39866;48.638;-2.020;2022-09-03T12:39:14;100826.38;;;25.13;46.21
53960;BME280;39866;48.638;-2.020;2022-09-03T12:42:01;100834.13;;;25.18;45.14
53960;BME280;39866;48.638;-2.020;2022-09-03T12:49:38;100830.50;;;25.38;43.71
53960;BME280;39866;48.638;-2.020;2022-09-03T12:52:19;100812.34;;;25.18;43.97
53960;BME280;39866;48.638;-2.020;2022-09-03T12:57:36;100827.13;;;25.56;45.33
53960;BME280;39866;48.638;-2.020;2022-09-03T13:00:07;100819.91;;;25.45;42.74
53960;BME280;39866;48.638;-2.020;2022-09-03T13:02:52;100814.13;;;25.29;43.33
53960;BME280;39866;48.638;-2.020;2022-09-03T13:07:58;100816.44;;;25.43;43.24
53960;BME280;39866;48.638;-2.020;2022-09-03T13:10:35;100814.38;;;25.56;44.15
53960;BME280;39866;48.638;-2.020;2022-09-03T13:13:20;100797.69;;;25.40;41.24
53960;BME280;39866;48.638;-2.020;2022-09-03T13:18:42;100819.84;;;25.66;39.93
53960;BME280;39866;48.638;-2.020;2022-09-03T13:24:39;100829.00;;;26.05;39.71
53960;BME280;39866;48.638;-2.020;2022-09-03T13:30:02;100812.91;;;25.92;39.83
53960;BME280;39866;48.638;-2.020;2022-09-03T13:35:25;100820.19;;;25.82;40.19
53960;BME280;39866;48.638;-2.020;2022-09-03T13:37:54;100814.19;;;25.88;40.47
53960;BME280;39866;48.638;-2.020;2022-09-03T13:40:25;100816.91;;;25.88;40.86
53960;BME280;39866;48.638;-2.020;2022-09-03T13:43:17;100818.97;;;25.65;40.78
53960;BME280;39866;48.638;-2.020;2022-09-03T13:45:53;100816.75;;;25.80;40.62
53960;BME280;39866;48.638;-2.020;2022-09-03T13:51:18;100825.22;;;25.87;39.87
53960;BME280;39866;48.638;-2.020;2022-09-03T13:56:57;100826.84;;;26.09;41.00
53960;BME280;39866;48.638;-2.020;2022-09-03T14:21:27;100811.22;;;27.99;36.35
53960;BME280;39866;48.638;-2.020;2022-09-03T14:24:07;100828.31;;;27.83;35.95
53960;BME280;39866;48.638;-2.020;2022-09-03T14:26:36;100816.16;;;27.40;36.28
53960;BME280;39866;48.638;-2.020;2022-09-03T14:34:59;100821.03;;;26.99;37.32
53960;BME280;39866;48.638;-2.020;2022-09-03T15:01:36;100814.81;;;27.16;36.99
53960;BME280;39866;48.638;-2.020;2022-09-03T15:07:12;100829.47;;;27.25;37.06
53960;BME280;39866;48.638;-2.020;2022-09-03T15:09:50;100824.78;;;27.45;37.60
53960;BME280;39866;48.638;-2.020;2022-09-03T15:12:24;100831.91;;;27.83;36.38
53960;BME280;39866;48.638;-2.020;2022-09-03T15:14:57;100836.22;;;27.86;37.06
53960;BME280;39866;48.638;-2.020;2022-09-03T15:17:50;100827.28;;;27.29;37.29
53960;BME280;39866;48.638;-2.020;2022-09-03T15:20:24;100823.03;;;26.97;38.34
53960;BME280;39866;48.638;-2.020;2022-09-03T15:31:18;100817.94;;;26.75;38.86
53960;BME280;39866;48.638;-2.020;2022-09-03T15:33:53;100816.53;;;26.51;39.46
53960;BME280;39866;48.638;-2.020;2022-09-03T15:36:25;100829.00;;;26.44;39.41
53960;BME280;39866;48.638;-2.020;2022-09-03T15:39:02;100823.13;;;26.58;39.62
53960;BME280;39866;48.638;-2.020;2022-09-03T15:41:34;100830.03;;;26.62;39.84
53960;BME280;39866;48.638;-2.020;2022-09-03T15:44:09;100835.31;;;26.74;38.11
53960;BME280;39866;48.638;-2.020;2022-09-03T15:47:00;100820.06;;;26.90;39.31
53960;BME280;39866;48.638;-2.020;2022-09-03T15:52:05;100820.25;;;27.26;37.31
53960;BME280;39866;48.638;-2.020;2022-09-03T15:57:32;100808.06;;;27.48;37.55
53960;BME280;39866;48.638;-2.020;2022-09-03T16:00:06;100809.91;;;27.20;37.27
53960;BME280;39866;48.638;-2.020;2022-09-03T16:02:46;100822.56;;;27.21;37.64
53960;BME280;39866;48.638;-2.020;2022-09-03T16:05:49;100827.09;;;27.40;37.71
53960;BME280;39866;48.638;-2.020;2022-09-03T16:08:40;100821.22;;;27.62;37.93
53960;BME280;39866;48.638;-2.020;2022-09-03T16:16:30;100821.19;;;27.72;37.22
53960;BME280;39866;48.638;-2.020;2022-09-03T16:19:15;100822.28;;;27.79;37.01
53960;BME280;39866;48.638;-2.020;2022-09-03T16:24:51;100810.44;;;27.88;37.46
53960;BME280;39866;48.638;-2.020;2022-09-03T16:27:29;100818.88;;;27.67;37.35
53960;BME280;39866;48.638;-2.020;2022-09-03T16:30:09;100815.41;;;27.75;37.78
53960;BME280;39866;48.638;-2.020;2022-09-03T16:33:12;100821.38;;;27.61;38.25
53960;BME280;39866;48.638;-2.020;2022-09-03T16:38:30;100815.16;;;27.41;38.41
53960;BME280;39866;48.638;-2.020;2022-09-03T16:41:07;100821.53;;;27.22;37.99
53960;BME280;39866;48.638;-2.020;2022-09-03T16:43:44;100819.88;;;27.11;38.31
53960;BME280;39866;48.638;-2.020;2022-09-03T16:46:29;100826.84;;;27.33;38.08
53960;BME280;39866;48.638;-2.020;2022-09-03T16:49:06;100820.34;;;27.34;37.81
53960;BME280;39866;48.638;-2.020;2022-09-03T16:51:53;100830.03;;;27.56;38.14
53960;BME280;39866;48.638;-2.020;2022-09-03T16:54:42;100827.22;;;27.48;38.35
53960;BME280;39866;48.638;-2.020;2022-09-03T17:00:12;100822.13;;;27.26;38.55
53960;BME280;39866;48.638;-2.020;2022-09-03T17:14:26;100836.41;;;27.00;39.18
53960;BME280;39866;48.638;-2.020;2022-09-03T17:41:53;100828.47;;;26.50;40.92